<?xml version="1.0" encoding="UTF-8" standalone="no" ?>
<gpx xmlns="http://www.topografix.com/GPX/1/1" xmlns:xsi="http://www.w3.org/2001/XMLSchema-instance" xsi:schemaLocation="http://www.topografix.com/GPX/1/1 http://www.topografix.com/GPX/1/1/gpx.xsd" version="1.1" creator="VisuGPX - https://www.visugpx.com">
  <metadata>
    <name>Autour de la foret verte de Rouen</name>
    <desc><![CDATA[Sortie en suivant les limites de la foret verte !
terrain très très gras]]></desc>
  </metadata>
  <trk>
    <name><![CDATA[Autour de la foret verte de Rouen_1]]></name>
    <trkseg>
      <trkpt lat="49.48156" lon="1.05467">
        <ele>-11</ele>
        <time>2011-02-13T09:04:24Z</time>
      </trkpt>
      <trkpt lat="49.4819" lon="1.05464">
        <ele>25</ele>
        <time>2011-02-13T09:06:20Z</time>
      </trkpt>
      <trkpt lat="49.48204" lon="1.05512">
        <ele>21</ele>
        <time>2011-02-13T09:06:35Z</time>
      </trkpt>
      <trkpt lat="49.48252" lon="1.05517">
        <ele>27</ele>
        <time>2011-02-13T09:06:50Z</time>
      </trkpt>
      <trkpt lat="49.48277" lon="1.05557">
        <ele>28</ele>
        <time>2011-02-13T09:07:01Z</time>
      </trkpt>
      <trkpt lat="49.4832" lon="1.05555">
        <ele>30</ele>
        <time>2011-02-13T09:07:13Z</time>
      </trkpt>
      <trkpt lat="49.4833" lon="1.05623">
        <ele>28</ele>
        <time>2011-02-13T09:07:26Z</time>
      </trkpt>
      <trkpt lat="49.48325" lon="1.05679">
        <ele>27</ele>
        <time>2011-02-13T09:07:35Z</time>
      </trkpt>
      <trkpt lat="49.48339" lon="1.05789">
        <ele>24</ele>
        <time>2011-02-13T09:07:53Z</time>
      </trkpt>
      <trkpt lat="49.4834" lon="1.0584">
        <ele>24</ele>
        <time>2011-02-13T09:08:01Z</time>
      </trkpt>
      <trkpt lat="49.48284" lon="1.05878">
        <ele>29</ele>
        <time>2011-02-13T09:08:18Z</time>
      </trkpt>
      <trkpt lat="49.48257" lon="1.05918">
        <ele>29</ele>
        <time>2011-02-13T09:08:30Z</time>
      </trkpt>
      <trkpt lat="49.48216" lon="1.05923">
        <ele>49</ele>
        <time>2011-02-13T09:09:46Z</time>
      </trkpt>
      <trkpt lat="49.48179" lon="1.05943">
        <ele>50</ele>
        <time>2011-02-13T09:10:01Z</time>
      </trkpt>
      <trkpt lat="49.48125" lon="1.05981">
        <ele>49</ele>
        <time>2011-02-13T09:10:21Z</time>
      </trkpt>
      <trkpt lat="49.48093" lon="1.0602">
        <ele>48</ele>
        <time>2011-02-13T09:10:33Z</time>
      </trkpt>
      <trkpt lat="49.4806" lon="1.06102">
        <ele>36</ele>
        <time>2011-02-13T09:10:51Z</time>
      </trkpt>
      <trkpt lat="49.48046" lon="1.0615">
        <ele>27</ele>
        <time>2011-02-13T09:11:01Z</time>
      </trkpt>
      <trkpt lat="49.48034" lon="1.06234">
        <ele>26</ele>
        <time>2011-02-13T09:11:18Z</time>
      </trkpt>
      <trkpt lat="49.48029" lon="1.06335">
        <ele>32</ele>
        <time>2011-02-13T09:11:36Z</time>
      </trkpt>
      <trkpt lat="49.48033" lon="1.06415">
        <ele>35</ele>
        <time>2011-02-13T09:11:52Z</time>
      </trkpt>
      <trkpt lat="49.4803" lon="1.06485">
        <ele>31</ele>
        <time>2011-02-13T09:12:05Z</time>
      </trkpt>
      <trkpt lat="49.48017" lon="1.06546">
        <ele>22</ele>
        <time>2011-02-13T09:12:21Z</time>
      </trkpt>
      <trkpt lat="49.47996" lon="1.06589">
        <ele>27</ele>
        <time>2011-02-13T09:12:33Z</time>
      </trkpt>
      <trkpt lat="49.47956" lon="1.06614">
        <ele>46</ele>
        <time>2011-02-13T09:12:49Z</time>
      </trkpt>
      <trkpt lat="49.47917" lon="1.06624">
        <ele>51</ele>
        <time>2011-02-13T09:13:12Z</time>
      </trkpt>
      <trkpt lat="49.47863" lon="1.06625">
        <ele>52</ele>
        <time>2011-02-13T09:13:46Z</time>
      </trkpt>
      <trkpt lat="49.47823" lon="1.06672">
        <ele>50</ele>
        <time>2011-02-13T09:14:18Z</time>
      </trkpt>
      <trkpt lat="49.47788" lon="1.06696">
        <ele>56</ele>
        <time>2011-02-13T09:14:38Z</time>
      </trkpt>
      <trkpt lat="49.47732" lon="1.06676">
        <ele>83</ele>
        <time>2011-02-13T09:15:28Z</time>
      </trkpt>
      <trkpt lat="49.47665" lon="1.06662">
        <ele>85</ele>
        <time>2011-02-13T09:16:53Z</time>
      </trkpt>
      <trkpt lat="49.47613" lon="1.06674">
        <ele>81</ele>
        <time>2011-02-13T09:17:12Z</time>
      </trkpt>
      <trkpt lat="49.47567" lon="1.06702">
        <ele>87</ele>
        <time>2011-02-13T09:17:31Z</time>
      </trkpt>
      <trkpt lat="49.4751" lon="1.06745">
        <ele>87</ele>
        <time>2011-02-13T09:17:58Z</time>
      </trkpt>
      <trkpt lat="49.4748" lon="1.06783">
        <ele>88</ele>
        <time>2011-02-13T09:18:19Z</time>
      </trkpt>
      <trkpt lat="49.47438" lon="1.06813">
        <ele>98</ele>
        <time>2011-02-13T09:18:54Z</time>
      </trkpt>
      <trkpt lat="49.47405" lon="1.06833">
        <ele>107</ele>
        <time>2011-02-13T09:19:23Z</time>
      </trkpt>
      <trkpt lat="49.47376" lon="1.069">
        <ele>107</ele>
        <time>2011-02-13T09:20:01Z</time>
      </trkpt>
      <trkpt lat="49.47353" lon="1.06943">
        <ele>105</ele>
        <time>2011-02-13T09:20:22Z</time>
      </trkpt>
      <trkpt lat="49.47333" lon="1.06988">
        <ele>104</ele>
        <time>2011-02-13T09:21:01Z</time>
      </trkpt>
      <trkpt lat="49.47307" lon="1.0708">
        <ele>104</ele>
        <time>2011-02-13T09:21:45Z</time>
      </trkpt>
      <trkpt lat="49.47287" lon="1.07159">
        <ele>110</ele>
        <time>2011-02-13T09:22:23Z</time>
      </trkpt>
      <trkpt lat="49.47282" lon="1.07221">
        <ele>118</ele>
        <time>2011-02-13T09:22:48Z</time>
      </trkpt>
      <trkpt lat="49.47285" lon="1.07291">
        <ele>122</ele>
        <time>2011-02-13T09:23:24Z</time>
      </trkpt>
      <trkpt lat="49.47287" lon="1.0735">
        <ele>133</ele>
        <time>2011-02-13T09:24:13Z</time>
      </trkpt>
      <trkpt lat="49.47293" lon="1.07411">
        <ele>146</ele>
        <time>2011-02-13T09:25:20Z</time>
      </trkpt>
      <trkpt lat="49.47315" lon="1.07459">
        <ele>145</ele>
        <time>2011-02-13T09:25:35Z</time>
      </trkpt>
      <trkpt lat="49.47364" lon="1.07511">
        <ele>144</ele>
        <time>2011-02-13T09:26:06Z</time>
      </trkpt>
      <trkpt lat="49.47387" lon="1.07569">
        <ele>146</ele>
        <time>2011-02-13T09:26:27Z</time>
      </trkpt>
      <trkpt lat="49.47461" lon="1.07674">
        <ele>142</ele>
        <time>2011-02-13T09:27:02Z</time>
      </trkpt>
      <trkpt lat="49.47492" lon="1.07724">
        <ele>140</ele>
        <time>2011-02-13T09:27:14Z</time>
      </trkpt>
      <trkpt lat="49.47517" lon="1.07773">
        <ele>141</ele>
        <time>2011-02-13T09:27:25Z</time>
      </trkpt>
      <trkpt lat="49.47542" lon="1.07829">
        <ele>141</ele>
        <time>2011-02-13T09:27:35Z</time>
      </trkpt>
      <trkpt lat="49.4757" lon="1.07898">
        <ele>141</ele>
        <time>2011-02-13T09:27:47Z</time>
      </trkpt>
      <trkpt lat="49.4765" lon="1.08115">
        <ele>144</ele>
        <time>2011-02-13T09:28:28Z</time>
      </trkpt>
      <trkpt lat="49.47665" lon="1.08166">
        <ele>144</ele>
        <time>2011-02-13T09:28:38Z</time>
      </trkpt>
      <trkpt lat="49.47709" lon="1.08302">
        <ele>150</ele>
        <time>2011-02-13T09:29:13Z</time>
      </trkpt>
      <trkpt lat="49.47752" lon="1.08472">
        <ele>153</ele>
        <time>2011-02-13T09:29:53Z</time>
      </trkpt>
      <trkpt lat="49.47768" lon="1.08522">
        <ele>154</ele>
        <time>2011-02-13T09:30:10Z</time>
      </trkpt>
      <trkpt lat="49.47787" lon="1.08572">
        <ele>155</ele>
        <time>2011-02-13T09:30:31Z</time>
      </trkpt>
      <trkpt lat="49.47797" lon="1.08646">
        <ele>158</ele>
        <time>2011-02-13T09:31:00Z</time>
      </trkpt>
      <trkpt lat="49.47811" lon="1.08724">
        <ele>159</ele>
        <time>2011-02-13T09:31:30Z</time>
      </trkpt>
      <trkpt lat="49.47825" lon="1.08845">
        <ele>161</ele>
        <time>2011-02-13T09:32:05Z</time>
      </trkpt>
      <trkpt lat="49.47838" lon="1.0905">
        <ele>166</ele>
        <time>2011-02-13T09:33:08Z</time>
      </trkpt>
      <trkpt lat="49.47836" lon="1.09179">
        <ele>168</ele>
        <time>2011-02-13T09:33:45Z</time>
      </trkpt>
      <trkpt lat="49.47855" lon="1.09236">
        <ele>168</ele>
        <time>2011-02-13T09:34:03Z</time>
      </trkpt>
      <trkpt lat="49.47876" lon="1.09303">
        <ele>169</ele>
        <time>2011-02-13T09:34:26Z</time>
      </trkpt>
      <trkpt lat="49.47877" lon="1.09357">
        <ele>169</ele>
        <time>2011-02-13T09:34:55Z</time>
      </trkpt>
      <trkpt lat="49.47905" lon="1.09422">
        <ele>168</ele>
        <time>2011-02-13T09:35:05Z</time>
      </trkpt>
      <trkpt lat="49.47928" lon="1.09469">
        <ele>168</ele>
        <time>2011-02-13T09:35:13Z</time>
      </trkpt>
      <trkpt lat="49.47926" lon="1.09524">
        <ele>168</ele>
        <time>2011-02-13T09:35:24Z</time>
      </trkpt>
      <trkpt lat="49.47958" lon="1.09547">
        <ele>168</ele>
        <time>2011-02-13T09:35:34Z</time>
      </trkpt>
      <trkpt lat="49.47995" lon="1.09731">
        <ele>169</ele>
        <time>2011-02-13T09:36:01Z</time>
      </trkpt>
      <trkpt lat="49.48046" lon="1.09991">
        <ele>164</ele>
        <time>2011-02-13T09:36:52Z</time>
      </trkpt>
      <trkpt lat="49.48041" lon="1.09933">
        <ele>170</ele>
        <time>2011-02-13T09:38:02Z</time>
      </trkpt>
      <trkpt lat="49.48024" lon="1.0984">
        <ele>171</ele>
        <time>2011-02-13T09:38:22Z</time>
      </trkpt>
      <trkpt lat="49.47998" lon="1.09726">
        <ele>171</ele>
        <time>2011-02-13T09:38:40Z</time>
      </trkpt>
      <trkpt lat="49.47969" lon="1.09575">
        <ele>170</ele>
        <time>2011-02-13T09:39:01Z</time>
      </trkpt>
      <trkpt lat="49.47956" lon="1.09528">
        <ele>170</ele>
        <time>2011-02-13T09:39:08Z</time>
      </trkpt>
      <trkpt lat="49.47932" lon="1.09462">
        <ele>169</ele>
        <time>2011-02-13T09:39:19Z</time>
      </trkpt>
      <trkpt lat="49.47888" lon="1.09352">
        <ele>169</ele>
        <time>2011-02-13T09:39:35Z</time>
      </trkpt>
      <trkpt lat="49.48006" lon="1.09327">
        <ele>168</ele>
        <time>2011-02-13T09:39:58Z</time>
      </trkpt>
      <trkpt lat="49.48129" lon="1.0934">
        <ele>166</ele>
        <time>2011-02-13T09:40:18Z</time>
      </trkpt>
      <trkpt lat="49.48166" lon="1.09341">
        <ele>165</ele>
        <time>2011-02-13T09:40:23Z</time>
      </trkpt>
      <trkpt lat="49.48203" lon="1.09491">
        <ele>163</ele>
        <time>2011-02-13T09:40:49Z</time>
      </trkpt>
      <trkpt lat="49.48248" lon="1.09486">
        <ele>163</ele>
        <time>2011-02-13T09:41:01Z</time>
      </trkpt>
      <trkpt lat="49.48274" lon="1.09538">
        <ele>161</ele>
        <time>2011-02-13T09:41:14Z</time>
      </trkpt>
      <trkpt lat="49.48284" lon="1.0965">
        <ele>161</ele>
        <time>2011-02-13T09:41:34Z</time>
      </trkpt>
      <trkpt lat="49.48293" lon="1.09703">
        <ele>161</ele>
        <time>2011-02-13T09:41:44Z</time>
      </trkpt>
      <trkpt lat="49.48342" lon="1.09702">
        <ele>159</ele>
        <time>2011-02-13T09:42:02Z</time>
      </trkpt>
      <trkpt lat="49.48366" lon="1.09738">
        <ele>155</ele>
        <time>2011-02-13T09:42:35Z</time>
      </trkpt>
      <trkpt lat="49.48389" lon="1.09803">
        <ele>163</ele>
        <time>2011-02-13T09:43:06Z</time>
      </trkpt>
      <trkpt lat="49.48401" lon="1.09861">
        <ele>165</ele>
        <time>2011-02-13T09:43:37Z</time>
      </trkpt>
      <trkpt lat="49.48423" lon="1.09908">
        <ele>162</ele>
        <time>2011-02-13T09:43:57Z</time>
      </trkpt>
      <trkpt lat="49.48461" lon="1.09929">
        <ele>165</ele>
        <time>2011-02-13T09:44:14Z</time>
      </trkpt>
      <trkpt lat="49.48525" lon="1.09924">
        <ele>161</ele>
        <time>2011-02-13T09:44:43Z</time>
      </trkpt>
      <trkpt lat="49.48565" lon="1.09952">
        <ele>163</ele>
        <time>2011-02-13T09:45:07Z</time>
      </trkpt>
      <trkpt lat="49.48618" lon="1.10003">
        <ele>164</ele>
        <time>2011-02-13T09:45:38Z</time>
      </trkpt>
      <trkpt lat="49.48645" lon="1.10032">
        <ele>165</ele>
        <time>2011-02-13T09:45:55Z</time>
      </trkpt>
      <trkpt lat="49.48685" lon="1.10022">
        <ele>168</ele>
        <time>2011-02-13T09:46:11Z</time>
      </trkpt>
      <trkpt lat="49.48721" lon="1.0998">
        <ele>172</ele>
        <time>2011-02-13T09:46:32Z</time>
      </trkpt>
      <trkpt lat="49.48757" lon="1.09962">
        <ele>171</ele>
        <time>2011-02-13T09:46:53Z</time>
      </trkpt>
      <trkpt lat="49.48805" lon="1.09948">
        <ele>169</ele>
        <time>2011-02-13T09:47:19Z</time>
      </trkpt>
      <trkpt lat="49.48843" lon="1.09946">
        <ele>167</ele>
        <time>2011-02-13T09:47:37Z</time>
      </trkpt>
      <trkpt lat="49.48911" lon="1.09932">
        <ele>165</ele>
        <time>2011-02-13T09:48:13Z</time>
      </trkpt>
      <trkpt lat="49.48952" lon="1.09936">
        <ele>163</ele>
        <time>2011-02-13T09:48:31Z</time>
      </trkpt>
      <trkpt lat="49.48988" lon="1.09935">
        <ele>163</ele>
        <time>2011-02-13T09:48:47Z</time>
      </trkpt>
      <trkpt lat="49.49022" lon="1.09913">
        <ele>169</ele>
        <time>2011-02-13T09:49:02Z</time>
      </trkpt>
      <trkpt lat="49.49056" lon="1.09867">
        <ele>171</ele>
        <time>2011-02-13T09:49:18Z</time>
      </trkpt>
      <trkpt lat="49.49073" lon="1.09815">
        <ele>171</ele>
        <time>2011-02-13T09:49:34Z</time>
      </trkpt>
      <trkpt lat="49.49085" lon="1.0976">
        <ele>171</ele>
        <time>2011-02-13T09:49:47Z</time>
      </trkpt>
      <trkpt lat="49.49127" lon="1.09787">
        <ele>168</ele>
        <time>2011-02-13T09:50:16Z</time>
      </trkpt>
      <trkpt lat="49.49155" lon="1.09844">
        <ele>164</ele>
        <time>2011-02-13T09:50:33Z</time>
      </trkpt>
      <trkpt lat="49.49189" lon="1.09933">
        <ele>169</ele>
        <time>2011-02-13T09:50:52Z</time>
      </trkpt>
      <trkpt lat="49.49205" lon="1.09978">
        <ele>169</ele>
        <time>2011-02-13T09:51:02Z</time>
      </trkpt>
      <trkpt lat="49.49226" lon="1.10053">
        <ele>170</ele>
        <time>2011-02-13T09:51:24Z</time>
      </trkpt>
      <trkpt lat="49.49239" lon="1.1014">
        <ele>170</ele>
        <time>2011-02-13T09:51:43Z</time>
      </trkpt>
      <trkpt lat="49.4926" lon="1.10231">
        <ele>167</ele>
        <time>2011-02-13T09:52:03Z</time>
      </trkpt>
      <trkpt lat="49.49264" lon="1.10316">
        <ele>177</ele>
        <time>2011-02-13T09:52:22Z</time>
      </trkpt>
      <trkpt lat="49.4926" lon="1.10376">
        <ele>180</ele>
        <time>2011-02-13T09:52:34Z</time>
      </trkpt>
      <trkpt lat="49.49268" lon="1.10441">
        <ele>179</ele>
        <time>2011-02-13T09:52:48Z</time>
      </trkpt>
      <trkpt lat="49.49294" lon="1.10491">
        <ele>176</ele>
        <time>2011-02-13T09:52:59Z</time>
      </trkpt>
      <trkpt lat="49.49308" lon="1.10545">
        <ele>175</ele>
        <time>2011-02-13T09:53:09Z</time>
      </trkpt>
      <trkpt lat="49.493" lon="1.10604">
        <ele>179</ele>
        <time>2011-02-13T09:53:23Z</time>
      </trkpt>
      <trkpt lat="49.49352" lon="1.10625">
        <ele>176</ele>
        <time>2011-02-13T09:53:41Z</time>
      </trkpt>
      <trkpt lat="49.49353" lon="1.10687">
        <ele>174</ele>
        <time>2011-02-13T09:54:04Z</time>
      </trkpt>
      <trkpt lat="49.49236" lon="1.11414">
        <ele>181</ele>
        <time>2011-02-13T09:56:43Z</time>
      </trkpt>
      <trkpt lat="49.49177" lon="1.11423">
        <ele>183</ele>
        <time>2011-02-13T09:57:08Z</time>
      </trkpt>
      <trkpt lat="49.4916" lon="1.11485">
        <ele>182</ele>
        <time>2011-02-13T09:57:58Z</time>
      </trkpt>
      <trkpt lat="49.49154" lon="1.11535">
        <ele>181</ele>
        <time>2011-02-13T09:58:19Z</time>
      </trkpt>
      <trkpt lat="49.49143" lon="1.11604">
        <ele>187</ele>
        <time>2011-02-13T09:58:52Z</time>
      </trkpt>
      <trkpt lat="49.49133" lon="1.11679">
        <ele>189</ele>
        <time>2011-02-13T09:59:18Z</time>
      </trkpt>
      <trkpt lat="49.49125" lon="1.11779">
        <ele>191</ele>
        <time>2011-02-13T09:59:49Z</time>
      </trkpt>
      <trkpt lat="49.4912" lon="1.11878">
        <ele>184</ele>
        <time>2011-02-13T10:00:17Z</time>
      </trkpt>
      <trkpt lat="49.49107" lon="1.11984">
        <ele>183</ele>
        <time>2011-02-13T10:00:57Z</time>
      </trkpt>
      <trkpt lat="49.49097" lon="1.12099">
        <ele>182</ele>
        <time>2011-02-13T10:01:50Z</time>
      </trkpt>
      <trkpt lat="49.4909" lon="1.12164">
        <ele>177</ele>
        <time>2011-02-13T10:02:09Z</time>
      </trkpt>
      <trkpt lat="49.49084" lon="1.12256">
        <ele>175</ele>
        <time>2011-02-13T10:02:43Z</time>
      </trkpt>
      <trkpt lat="49.49133" lon="1.12336">
        <ele>169</ele>
        <time>2011-02-13T10:03:28Z</time>
      </trkpt>
      <trkpt lat="49.49168" lon="1.12393">
        <ele>169</ele>
        <time>2011-02-13T10:03:43Z</time>
      </trkpt>
      <trkpt lat="49.49187" lon="1.12437">
        <ele>167</ele>
        <time>2011-02-13T10:03:54Z</time>
      </trkpt>
      <trkpt lat="49.49213" lon="1.12516">
        <ele>166</ele>
        <time>2011-02-13T10:04:14Z</time>
      </trkpt>
      <trkpt lat="49.49274" lon="1.12713">
        <ele>164</ele>
        <time>2011-02-13T10:04:56Z</time>
      </trkpt>
      <trkpt lat="49.49304" lon="1.12823">
        <ele>166</ele>
        <time>2011-02-13T10:05:19Z</time>
      </trkpt>
      <trkpt lat="49.49324" lon="1.12945">
        <ele>163</ele>
        <time>2011-02-13T10:05:45Z</time>
      </trkpt>
      <trkpt lat="49.49348" lon="1.13036">
        <ele>161</ele>
        <time>2011-02-13T10:06:01Z</time>
      </trkpt>
      <trkpt lat="49.49386" lon="1.13143">
        <ele>165</ele>
        <time>2011-02-13T10:06:21Z</time>
      </trkpt>
      <trkpt lat="49.49405" lon="1.13206">
        <ele>164</ele>
        <time>2011-02-13T10:06:33Z</time>
      </trkpt>
      <trkpt lat="49.4943" lon="1.13265">
        <ele>166</ele>
        <time>2011-02-13T10:06:45Z</time>
      </trkpt>
      <trkpt lat="49.49465" lon="1.1331">
        <ele>163</ele>
        <time>2011-02-13T10:06:56Z</time>
      </trkpt>
      <trkpt lat="49.49493" lon="1.13351">
        <ele>163</ele>
        <time>2011-02-13T10:07:05Z</time>
      </trkpt>
      <trkpt lat="49.49527" lon="1.13374">
        <ele>162</ele>
        <time>2011-02-13T10:07:15Z</time>
      </trkpt>
      <trkpt lat="49.49546" lon="1.13324">
        <ele>159</ele>
        <time>2011-02-13T10:07:24Z</time>
      </trkpt>
      <trkpt lat="49.4958" lon="1.13151">
        <ele>154</ele>
        <time>2011-02-13T10:07:53Z</time>
      </trkpt>
      <trkpt lat="49.49597" lon="1.13037">
        <ele>155</ele>
        <time>2011-02-13T10:08:10Z</time>
      </trkpt>
      <trkpt lat="49.49615" lon="1.12971">
        <ele>160</ele>
        <time>2011-02-13T10:08:38Z</time>
      </trkpt>
      <trkpt lat="49.49629" lon="1.12922">
        <ele>161</ele>
        <time>2011-02-13T10:08:55Z</time>
      </trkpt>
      <trkpt lat="49.49645" lon="1.12793">
        <ele>163</ele>
        <time>2011-02-13T10:09:35Z</time>
      </trkpt>
      <trkpt lat="49.4967" lon="1.12713">
        <ele>168</ele>
        <time>2011-02-13T10:10:12Z</time>
      </trkpt>
      <trkpt lat="49.49681" lon="1.12588">
        <ele>164</ele>
        <time>2011-02-13T10:10:48Z</time>
      </trkpt>
      <trkpt lat="49.49677" lon="1.12537">
        <ele>166</ele>
        <time>2011-02-13T10:11:03Z</time>
      </trkpt>
      <trkpt lat="49.49698" lon="1.12432">
        <ele>163</ele>
        <time>2011-02-13T10:11:22Z</time>
      </trkpt>
      <trkpt lat="49.49744" lon="1.12138">
        <ele>162</ele>
        <time>2011-02-13T10:12:14Z</time>
      </trkpt>
      <trkpt lat="49.49817" lon="1.11692">
        <ele>166</ele>
        <time>2011-02-13T10:13:24Z</time>
      </trkpt>
      <trkpt lat="49.49927" lon="1.11729">
        <ele>161</ele>
        <time>2011-02-13T10:14:00Z</time>
      </trkpt>
      <trkpt lat="49.49973" lon="1.11766">
        <ele>159</ele>
        <time>2011-02-13T10:14:11Z</time>
      </trkpt>
      <trkpt lat="49.50013" lon="1.11789">
        <ele>156</ele>
        <time>2011-02-13T10:14:22Z</time>
      </trkpt>
      <trkpt lat="49.50027" lon="1.11741">
        <ele>155</ele>
        <time>2011-02-13T10:14:47Z</time>
      </trkpt>
      <trkpt lat="49.50044" lon="1.11676">
        <ele>155</ele>
        <time>2011-02-13T10:15:09Z</time>
      </trkpt>
      <trkpt lat="49.50053" lon="1.11619">
        <ele>154</ele>
        <time>2011-02-13T10:15:26Z</time>
      </trkpt>
      <trkpt lat="49.50065" lon="1.11569">
        <ele>157</ele>
        <time>2011-02-13T10:15:39Z</time>
      </trkpt>
      <trkpt lat="49.50071" lon="1.1151">
        <ele>156</ele>
        <time>2011-02-13T10:15:57Z</time>
      </trkpt>
      <trkpt lat="49.5008" lon="1.11458">
        <ele>156</ele>
        <time>2011-02-13T10:16:14Z</time>
      </trkpt>
      <trkpt lat="49.50092" lon="1.11394">
        <ele>153</ele>
        <time>2011-02-13T10:16:36Z</time>
      </trkpt>
      <trkpt lat="49.50113" lon="1.11295">
        <ele>145</ele>
        <time>2011-02-13T10:16:59Z</time>
      </trkpt>
      <trkpt lat="49.50135" lon="1.1117">
        <ele>138</ele>
        <time>2011-02-13T10:17:31Z</time>
      </trkpt>
      <trkpt lat="49.50144" lon="1.11094">
        <ele>139</ele>
        <time>2011-02-13T10:17:53Z</time>
      </trkpt>
      <trkpt lat="49.50158" lon="1.11034">
        <ele>140</ele>
        <time>2011-02-13T10:18:09Z</time>
      </trkpt>
      <trkpt lat="49.50175" lon="1.1093">
        <ele>140</ele>
        <time>2011-02-13T10:18:37Z</time>
      </trkpt>
      <trkpt lat="49.50161" lon="1.10876">
        <ele>141</ele>
        <time>2011-02-13T10:18:56Z</time>
      </trkpt>
      <trkpt lat="49.50114" lon="1.10854">
        <ele>144</ele>
        <time>2011-02-13T10:19:17Z</time>
      </trkpt>
      <trkpt lat="49.50081" lon="1.10844">
        <ele>146</ele>
        <time>2011-02-13T10:19:34Z</time>
      </trkpt>
      <trkpt lat="49.49982" lon="1.10848">
        <ele>158</ele>
        <time>2011-02-13T10:20:20Z</time>
      </trkpt>
      <trkpt lat="49.49933" lon="1.10787">
        <ele>170</ele>
        <time>2011-02-13T10:21:21Z</time>
      </trkpt>
      <trkpt lat="49.49919" lon="1.10737">
        <ele>170</ele>
        <time>2011-02-13T10:21:46Z</time>
      </trkpt>
      <trkpt lat="49.499" lon="1.10691">
        <ele>169</ele>
        <time>2011-02-13T10:22:03Z</time>
      </trkpt>
      <trkpt lat="49.4993" lon="1.10659">
        <ele>169</ele>
        <time>2011-02-13T10:22:18Z</time>
      </trkpt>
      <trkpt lat="49.5002" lon="1.10582">
        <ele>162</ele>
        <time>2011-02-13T10:22:46Z</time>
      </trkpt>
      <trkpt lat="49.50084" lon="1.10483">
        <ele>160</ele>
        <time>2011-02-13T10:23:07Z</time>
      </trkpt>
      <trkpt lat="49.50107" lon="1.10443">
        <ele>159</ele>
        <time>2011-02-13T10:23:14Z</time>
      </trkpt>
      <trkpt lat="49.50128" lon="1.10381">
        <ele>159</ele>
        <time>2011-02-13T10:23:23Z</time>
      </trkpt>
      <trkpt lat="49.50171" lon="1.10331">
        <ele>158</ele>
        <time>2011-02-13T10:23:36Z</time>
      </trkpt>
      <trkpt lat="49.50207" lon="1.10308">
        <ele>154</ele>
        <time>2011-02-13T10:23:45Z</time>
      </trkpt>
      <trkpt lat="49.50245" lon="1.10306">
        <ele>149</ele>
        <time>2011-02-13T10:23:51Z</time>
      </trkpt>
      <trkpt lat="49.50299" lon="1.10299">
        <ele>113</ele>
        <time>2011-02-13T10:25:50Z</time>
      </trkpt>
      <trkpt lat="49.50349" lon="1.10274">
        <ele>132</ele>
        <time>2011-02-13T10:26:12Z</time>
      </trkpt>
      <trkpt lat="49.50402" lon="1.10256">
        <ele>127</ele>
        <time>2011-02-13T10:26:25Z</time>
      </trkpt>
      <trkpt lat="49.5046" lon="1.10206">
        <ele>118</ele>
        <time>2011-02-13T10:26:36Z</time>
      </trkpt>
      <trkpt lat="49.50501" lon="1.10172">
        <ele>108</ele>
        <time>2011-02-13T10:26:43Z</time>
      </trkpt>
      <trkpt lat="49.50537" lon="1.10173">
        <ele>103</ele>
        <time>2011-02-13T10:26:54Z</time>
      </trkpt>
      <trkpt lat="49.50589" lon="1.10106">
        <ele>109</ele>
        <time>2011-02-13T10:27:23Z</time>
      </trkpt>
      <trkpt lat="49.5062" lon="1.10048">
        <ele>109</ele>
        <time>2011-02-13T10:27:41Z</time>
      </trkpt>
      <trkpt lat="49.50647" lon="1.1001">
        <ele>108</ele>
        <time>2011-02-13T10:27:57Z</time>
      </trkpt>
      <trkpt lat="49.50669" lon="1.09962">
        <ele>106</ele>
        <time>2011-02-13T10:28:15Z</time>
      </trkpt>
      <trkpt lat="49.50688" lon="1.09893">
        <ele>107</ele>
        <time>2011-02-13T10:28:36Z</time>
      </trkpt>
      <trkpt lat="49.50708" lon="1.09782">
        <ele>109</ele>
        <time>2011-02-13T10:29:09Z</time>
      </trkpt>
      <trkpt lat="49.50734" lon="1.09716">
        <ele>113</ele>
        <time>2011-02-13T10:29:54Z</time>
      </trkpt>
      <trkpt lat="49.50762" lon="1.09688">
        <ele>116</ele>
        <time>2011-02-13T10:30:15Z</time>
      </trkpt>
      <trkpt lat="49.50805" lon="1.0968">
        <ele>121</ele>
        <time>2011-02-13T10:30:38Z</time>
      </trkpt>
      <trkpt lat="49.5086" lon="1.09651">
        <ele>121</ele>
        <time>2011-02-13T10:31:06Z</time>
      </trkpt>
      <trkpt lat="49.50911" lon="1.09601">
        <ele>121</ele>
        <time>2011-02-13T10:31:34Z</time>
      </trkpt>
      <trkpt lat="49.50956" lon="1.09587">
        <ele>122</ele>
        <time>2011-02-13T10:31:57Z</time>
      </trkpt>
      <trkpt lat="49.51" lon="1.096">
        <ele>118</ele>
        <time>2011-02-13T10:32:18Z</time>
      </trkpt>
      <trkpt lat="49.51034" lon="1.09618">
        <ele>116</ele>
        <time>2011-02-13T10:32:36Z</time>
      </trkpt>
      <trkpt lat="49.51069" lon="1.09616">
        <ele>118</ele>
        <time>2011-02-13T10:32:54Z</time>
      </trkpt>
      <trkpt lat="49.51127" lon="1.09595">
        <ele>124</ele>
        <time>2011-02-13T10:33:25Z</time>
      </trkpt>
      <trkpt lat="49.51175" lon="1.09565">
        <ele>126</ele>
        <time>2011-02-13T10:33:51Z</time>
      </trkpt>
      <trkpt lat="49.51236" lon="1.09583">
        <ele>134</ele>
        <time>2011-02-13T10:34:36Z</time>
      </trkpt>
      <trkpt lat="49.51281" lon="1.09591">
        <ele>133</ele>
        <time>2011-02-13T10:34:56Z</time>
      </trkpt>
      <trkpt lat="49.51315" lon="1.09609">
        <ele>132</ele>
        <time>2011-02-13T10:35:12Z</time>
      </trkpt>
      <trkpt lat="49.51355" lon="1.09645">
        <ele>133</ele>
        <time>2011-02-13T10:35:35Z</time>
      </trkpt>
      <trkpt lat="49.5138" lon="1.09684">
        <ele>134</ele>
        <time>2011-02-13T10:35:55Z</time>
      </trkpt>
      <trkpt lat="49.51401" lon="1.09735">
        <ele>136</ele>
        <time>2011-02-13T10:36:15Z</time>
      </trkpt>
      <trkpt lat="49.51442" lon="1.09802">
        <ele>143</ele>
        <time>2011-02-13T10:36:45Z</time>
      </trkpt>
      <trkpt lat="49.51478" lon="1.09837">
        <ele>152</ele>
        <time>2011-02-13T10:37:02Z</time>
      </trkpt>
      <trkpt lat="49.515" lon="1.09878">
        <ele>158</ele>
        <time>2011-02-13T10:37:20Z</time>
      </trkpt>
      <trkpt lat="49.51513" lon="1.09941">
        <ele>165</ele>
        <time>2011-02-13T10:37:43Z</time>
      </trkpt>
      <trkpt lat="49.51537" lon="1.09997">
        <ele>168</ele>
        <time>2011-02-13T10:38:06Z</time>
      </trkpt>
      <trkpt lat="49.51579" lon="1.10088">
        <ele>169</ele>
        <time>2011-02-13T10:38:39Z</time>
      </trkpt>
      <trkpt lat="49.51603" lon="1.10124">
        <ele>168</ele>
        <time>2011-02-13T10:38:53Z</time>
      </trkpt>
      <trkpt lat="49.51644" lon="1.10215">
        <ele>168</ele>
        <time>2011-02-13T10:39:21Z</time>
      </trkpt>
      <trkpt lat="49.51671" lon="1.10249">
        <ele>169</ele>
        <time>2011-02-13T10:39:34Z</time>
      </trkpt>
      <trkpt lat="49.51745" lon="1.10248">
        <ele>168</ele>
        <time>2011-02-13T10:40:08Z</time>
      </trkpt>
      <trkpt lat="49.51743" lon="1.10105">
        <ele>172</ele>
        <time>2011-02-13T10:41:14Z</time>
      </trkpt>
      <trkpt lat="49.5171" lon="1.0993">
        <ele>174</ele>
        <time>2011-02-13T10:41:37Z</time>
      </trkpt>
      <trkpt lat="49.51694" lon="1.09865">
        <ele>175</ele>
        <time>2011-02-13T10:41:46Z</time>
      </trkpt>
      <trkpt lat="49.51633" lon="1.09599">
        <ele>177</ele>
        <time>2011-02-13T10:42:21Z</time>
      </trkpt>
      <trkpt lat="49.5162" lon="1.09534">
        <ele>178</ele>
        <time>2011-02-13T10:42:29Z</time>
      </trkpt>
      <trkpt lat="49.51594" lon="1.09405">
        <ele>178</ele>
        <time>2011-02-13T10:42:48Z</time>
      </trkpt>
      <trkpt lat="49.51556" lon="1.09401">
        <ele>179</ele>
        <time>2011-02-13T10:44:41Z</time>
      </trkpt>
      <trkpt lat="49.51498" lon="1.09417">
        <ele>178</ele>
        <time>2011-02-13T10:45:36Z</time>
      </trkpt>
      <trkpt lat="49.51456" lon="1.09401">
        <ele>174</ele>
        <time>2011-02-13T10:46:10Z</time>
      </trkpt>
      <trkpt lat="49.51407" lon="1.09395">
        <ele>167</ele>
        <time>2011-02-13T10:47:12Z</time>
      </trkpt>
      <trkpt lat="49.51356" lon="1.09394">
        <ele>162</ele>
        <time>2011-02-13T10:47:33Z</time>
      </trkpt>
      <trkpt lat="49.51323" lon="1.09376">
        <ele>162</ele>
        <time>2011-02-13T10:47:56Z</time>
      </trkpt>
      <trkpt lat="49.51287" lon="1.09375">
        <ele>166</ele>
        <time>2011-02-13T10:48:22Z</time>
      </trkpt>
      <trkpt lat="49.51249" lon="1.09375">
        <ele>163</ele>
        <time>2011-02-13T10:48:41Z</time>
      </trkpt>
      <trkpt lat="49.51206" lon="1.09356">
        <ele>164</ele>
        <time>2011-02-13T10:49:02Z</time>
      </trkpt>
      <trkpt lat="49.51124" lon="1.09372">
        <ele>161</ele>
        <time>2011-02-13T10:49:31Z</time>
      </trkpt>
      <trkpt lat="49.51066" lon="1.09388">
        <ele>160</ele>
        <time>2011-02-13T10:49:50Z</time>
      </trkpt>
      <trkpt lat="49.50976" lon="1.09399">
        <ele>157</ele>
        <time>2011-02-13T10:50:23Z</time>
      </trkpt>
      <trkpt lat="49.50892" lon="1.09426">
        <ele>150</ele>
        <time>2011-02-13T10:50:57Z</time>
      </trkpt>
      <trkpt lat="49.50878" lon="1.09344">
        <ele>150</ele>
        <time>2011-02-13T10:51:33Z</time>
      </trkpt>
      <trkpt lat="49.50864" lon="1.09277">
        <ele>151</ele>
        <time>2011-02-13T10:52:01Z</time>
      </trkpt>
      <trkpt lat="49.50839" lon="1.09104">
        <ele>156</ele>
        <time>2011-02-13T10:53:00Z</time>
      </trkpt>
      <trkpt lat="49.50835" lon="1.09051">
        <ele>157</ele>
        <time>2011-02-13T10:53:17Z</time>
      </trkpt>
      <trkpt lat="49.50866" lon="1.08944">
        <ele>153</ele>
        <time>2011-02-13T10:53:55Z</time>
      </trkpt>
      <trkpt lat="49.50869" lon="1.08892">
        <ele>152</ele>
        <time>2011-02-13T10:54:09Z</time>
      </trkpt>
      <trkpt lat="49.50806" lon="1.0879">
        <ele>146</ele>
        <time>2011-02-13T10:54:42Z</time>
      </trkpt>
      <trkpt lat="49.50802" lon="1.08739">
        <ele>146</ele>
        <time>2011-02-13T10:54:58Z</time>
      </trkpt>
      <trkpt lat="49.50786" lon="1.08668">
        <ele>150</ele>
        <time>2011-02-13T10:55:18Z</time>
      </trkpt>
      <trkpt lat="49.50777" lon="1.08617">
        <ele>151</ele>
        <time>2011-02-13T10:55:29Z</time>
      </trkpt>
      <trkpt lat="49.50772" lon="1.08553">
        <ele>152</ele>
        <time>2011-02-13T10:55:39Z</time>
      </trkpt>
      <trkpt lat="49.50757" lon="1.08455">
        <ele>153</ele>
        <time>2011-02-13T10:55:50Z</time>
      </trkpt>
      <trkpt lat="49.50739" lon="1.08368">
        <ele>151</ele>
        <time>2011-02-13T10:56:09Z</time>
      </trkpt>
      <trkpt lat="49.50723" lon="1.08306">
        <ele>147</ele>
        <time>2011-02-13T10:56:25Z</time>
      </trkpt>
      <trkpt lat="49.50694" lon="1.08281">
        <ele>150</ele>
        <time>2011-02-13T10:56:46Z</time>
      </trkpt>
      <trkpt lat="49.507" lon="1.08228">
        <ele>151</ele>
        <time>2011-02-13T10:57:06Z</time>
      </trkpt>
      <trkpt lat="49.50682" lon="1.08184">
        <ele>155</ele>
        <time>2011-02-13T10:57:22Z</time>
      </trkpt>
      <trkpt lat="49.50666" lon="1.08137">
        <ele>157</ele>
        <time>2011-02-13T10:57:38Z</time>
      </trkpt>
      <trkpt lat="49.50617" lon="1.07946">
        <ele>158</ele>
        <time>2011-02-13T10:58:32Z</time>
      </trkpt>
      <trkpt lat="49.50626" lon="1.07893">
        <ele>158</ele>
        <time>2011-02-13T10:58:46Z</time>
      </trkpt>
      <trkpt lat="49.50641" lon="1.07835">
        <ele>156</ele>
        <time>2011-02-13T10:59:03Z</time>
      </trkpt>
      <trkpt lat="49.50616" lon="1.07772">
        <ele>152</ele>
        <time>2011-02-13T10:59:56Z</time>
      </trkpt>
      <trkpt lat="49.50577" lon="1.07701">
        <ele>149</ele>
        <time>2011-02-13T11:00:12Z</time>
      </trkpt>
      <trkpt lat="49.50559" lon="1.07644">
        <ele>145</ele>
        <time>2011-02-13T11:00:34Z</time>
      </trkpt>
      <trkpt lat="49.50483" lon="1.07527">
        <ele>141</ele>
        <time>2011-02-13T11:01:16Z</time>
      </trkpt>
      <trkpt lat="49.50452" lon="1.075">
        <ele>140</ele>
        <time>2011-02-13T11:01:27Z</time>
      </trkpt>
      <trkpt lat="49.50424" lon="1.07467">
        <ele>139</ele>
        <time>2011-02-13T11:01:36Z</time>
      </trkpt>
      <trkpt lat="49.50393" lon="1.07446">
        <ele>137</ele>
        <time>2011-02-13T11:01:43Z</time>
      </trkpt>
      <trkpt lat="49.50366" lon="1.07397">
        <ele>131</ele>
        <time>2011-02-13T11:01:55Z</time>
      </trkpt>
      <trkpt lat="49.50316" lon="1.07344">
        <ele>133</ele>
        <time>2011-02-13T11:02:58Z</time>
      </trkpt>
      <trkpt lat="49.50263" lon="1.07313">
        <ele>138</ele>
        <time>2011-02-13T11:03:46Z</time>
      </trkpt>
      <trkpt lat="49.50225" lon="1.07295">
        <ele>137</ele>
        <time>2011-02-13T11:04:07Z</time>
      </trkpt>
      <trkpt lat="49.50187" lon="1.07253">
        <ele>137</ele>
        <time>2011-02-13T11:04:31Z</time>
      </trkpt>
      <trkpt lat="49.50144" lon="1.07173">
        <ele>135</ele>
        <time>2011-02-13T11:05:00Z</time>
      </trkpt>
      <trkpt lat="49.50118" lon="1.07128">
        <ele>132</ele>
        <time>2011-02-13T11:05:17Z</time>
      </trkpt>
      <trkpt lat="49.50091" lon="1.0709">
        <ele>131</ele>
        <time>2011-02-13T11:05:30Z</time>
      </trkpt>
      <trkpt lat="49.5006" lon="1.07022">
        <ele>138</ele>
        <time>2011-02-13T11:05:45Z</time>
      </trkpt>
      <trkpt lat="49.50035" lon="1.06952">
        <ele>144</ele>
        <time>2011-02-13T11:06:03Z</time>
      </trkpt>
      <trkpt lat="49.50017" lon="1.06893">
        <ele>144</ele>
        <time>2011-02-13T11:06:18Z</time>
      </trkpt>
      <trkpt lat="49.49963" lon="1.06747">
        <ele>143</ele>
        <time>2011-02-13T11:06:56Z</time>
      </trkpt>
      <trkpt lat="49.49946" lon="1.06685">
        <ele>142</ele>
        <time>2011-02-13T11:07:12Z</time>
      </trkpt>
      <trkpt lat="49.49925" lon="1.06643">
        <ele>141</ele>
        <time>2011-02-13T11:07:24Z</time>
      </trkpt>
      <trkpt lat="49.49865" lon="1.06558">
        <ele>141</ele>
        <time>2011-02-13T11:07:52Z</time>
      </trkpt>
      <trkpt lat="49.49837" lon="1.0653">
        <ele>141</ele>
        <time>2011-02-13T11:08:05Z</time>
      </trkpt>
      <trkpt lat="49.49804" lon="1.06474">
        <ele>141</ele>
        <time>2011-02-13T11:09:43Z</time>
      </trkpt>
      <trkpt lat="49.49745" lon="1.06396">
        <ele>146</ele>
        <time>2011-02-13T11:10:21Z</time>
      </trkpt>
      <trkpt lat="49.49561" lon="1.06248">
        <ele>139</ele>
        <time>2011-02-13T11:11:13Z</time>
      </trkpt>
      <trkpt lat="49.49481" lon="1.06157">
        <ele>137</ele>
        <time>2011-02-13T11:11:35Z</time>
      </trkpt>
      <trkpt lat="49.49394" lon="1.06044">
        <ele>142</ele>
        <time>2011-02-13T11:12:01Z</time>
      </trkpt>
      <trkpt lat="49.49372" lon="1.06005">
        <ele>142</ele>
        <time>2011-02-13T11:12:10Z</time>
      </trkpt>
      <trkpt lat="49.49354" lon="1.05898">
        <ele>142</ele>
        <time>2011-02-13T11:12:31Z</time>
      </trkpt>
      <trkpt lat="49.49349" lon="1.05725">
        <ele>139</ele>
        <time>2011-02-13T11:12:54Z</time>
      </trkpt>
      <trkpt lat="49.49332" lon="1.05646">
        <ele>138</ele>
        <time>2011-02-13T11:13:02Z</time>
      </trkpt>
      <trkpt lat="49.49288" lon="1.05568">
        <ele>135</ele>
        <time>2011-02-13T11:13:13Z</time>
      </trkpt>
      <trkpt lat="49.49259" lon="1.05495">
        <ele>132</ele>
        <time>2011-02-13T11:13:22Z</time>
      </trkpt>
      <trkpt lat="49.49242" lon="1.05444">
        <ele>129</ele>
        <time>2011-02-13T11:13:27Z</time>
      </trkpt>
      <trkpt lat="49.49205" lon="1.05395">
        <ele>125</ele>
        <time>2011-02-13T11:13:35Z</time>
      </trkpt>
      <trkpt lat="49.49174" lon="1.05368">
        <ele>122</ele>
        <time>2011-02-13T11:13:40Z</time>
      </trkpt>
      <trkpt lat="49.49144" lon="1.05344">
        <ele>118</ele>
        <time>2011-02-13T11:13:46Z</time>
      </trkpt>
      <trkpt lat="49.49081" lon="1.05298">
        <ele>109</ele>
        <time>2011-02-13T11:14:01Z</time>
      </trkpt>
      <trkpt lat="49.4915" lon="1.05235">
        <ele>100</ele>
        <time>2011-02-13T11:14:21Z</time>
      </trkpt>
      <trkpt lat="49.49109" lon="1.05171">
        <ele>96</ele>
        <time>2011-02-13T11:14:31Z</time>
      </trkpt>
      <trkpt lat="49.49048" lon="1.05145">
        <ele>90</ele>
        <time>2011-02-13T11:14:39Z</time>
      </trkpt>
      <trkpt lat="49.49022" lon="1.05109">
        <ele>82</ele>
        <time>2011-02-13T11:14:48Z</time>
      </trkpt>
      <trkpt lat="49.48979" lon="1.05107">
        <ele>72</ele>
        <time>2011-02-13T11:15:11Z</time>
      </trkpt>
      <trkpt lat="49.48927" lon="1.05106">
        <ele>66</ele>
        <time>2011-02-13T11:24:50Z</time>
      </trkpt>
      <trkpt lat="49.48903" lon="1.05031">
        <ele>62</ele>
        <time>2011-02-13T11:25:05Z</time>
      </trkpt>
      <trkpt lat="49.48907" lon="1.04974">
        <ele>61</ele>
        <time>2011-02-13T11:25:11Z</time>
      </trkpt>
      <trkpt lat="49.48919" lon="1.04916">
        <ele>58</ele>
        <time>2011-02-13T11:25:21Z</time>
      </trkpt>
      <trkpt lat="49.48829" lon="1.04889">
        <ele>48</ele>
        <time>2011-02-13T11:25:43Z</time>
      </trkpt>
      <trkpt lat="49.48688" lon="1.04857">
        <ele>39</ele>
        <time>2011-02-13T11:26:10Z</time>
      </trkpt>
      <trkpt lat="49.48632" lon="1.04837">
        <ele>42</ele>
        <time>2011-02-13T11:26:23Z</time>
      </trkpt>
      <trkpt lat="49.48573" lon="1.04834">
        <ele>45</ele>
        <time>2011-02-13T11:27:07Z</time>
      </trkpt>
      <trkpt lat="49.4848" lon="1.04838">
        <ele>42</ele>
        <time>2011-02-13T11:27:22Z</time>
      </trkpt>
      <trkpt lat="49.48446" lon="1.04884">
        <ele>40</ele>
        <time>2011-02-13T11:27:30Z</time>
      </trkpt>
      <trkpt lat="49.48406" lon="1.04962">
        <ele>37</ele>
        <time>2011-02-13T11:27:42Z</time>
      </trkpt>
      <trkpt lat="49.48398" lon="1.05012">
        <ele>36</ele>
        <time>2011-02-13T11:27:49Z</time>
      </trkpt>
      <trkpt lat="49.4841" lon="1.05075">
        <ele>37</ele>
        <time>2011-02-13T11:28:00Z</time>
      </trkpt>
      <trkpt lat="49.48409" lon="1.0513">
        <ele>36</ele>
        <time>2011-02-13T11:28:05Z</time>
      </trkpt>
      <trkpt lat="49.48346" lon="1.05139">
        <ele>37</ele>
        <time>2011-02-13T11:28:19Z</time>
      </trkpt>
      <trkpt lat="49.4825" lon="1.05162">
        <ele>28</ele>
        <time>2011-02-13T11:28:52Z</time>
      </trkpt>
      <trkpt lat="49.48204" lon="1.05177">
        <ele>29</ele>
        <time>2011-02-13T11:29:04Z</time>
      </trkpt>
      <trkpt lat="49.48179" lon="1.05224">
        <ele>30</ele>
        <time>2011-02-13T11:29:17Z</time>
      </trkpt>
      <trkpt lat="49.4818" lon="1.05312">
        <ele>29</ele>
        <time>2011-02-13T11:29:27Z</time>
      </trkpt>
      <trkpt lat="49.48181" lon="1.05364">
        <ele>30</ele>
        <time>2011-02-13T11:29:34Z</time>
      </trkpt>
      <trkpt lat="49.48191" lon="1.05422">
        <ele>30</ele>
        <time>2011-02-13T11:29:42Z</time>
      </trkpt>
      <trkpt lat="49.48202" lon="1.05469">
        <ele>32</ele>
        <time>2011-02-13T11:31:25Z</time>
      </trkpt>
    </trkseg>
  </trk>
</gpx>